Time;durP1;ratioP1;P1;durP2;ratioP2;P2;SDS_P1;SDS_P2;PMS_P1;PMS_P2;Temp;Humidity;BMP_temperature;BMP_pressure;BME280_temperature;BME280_humidity;BME280_pressure;Samples;Min_cycle;Max_cycle;Signal;HPM_P1;HPM_P2
2021/04/23 00:00:56;;;;;;;11.07;9.90;;;;;21.40;101602.00;;;;2079600;28;20213;-66
2021/04/23 00:01:56;;;;;;;12.88;10.43;;;;;21.40;101597.00;;;;2076709;28;20218;-66
2021/04/23 00:02:58;;;;;;;12.17;10.13;;;;;21.40;101605.00;;;;2079029;28;20713;-66
2021/04/23 00:04:01;;;;;;;11.77;10.55;;;;;21.40;101606.00;;;;2079420;28;20216;-66
2021/04/23 00:05:01;;;;;;;11.20;10.10;;;;;21.40;101601.00;;;;2079593;28;20643;-66
2021/04/23 00:06:12;;;;;;;11.63;9.53;;;;;21.40;101599.00;;;;2079621;28;20222;-66
2021/04/23 00:07:12;;;;;;;11.68;10.07;;;;;21.50;101601.00;;;;2074814;28;20293;-66
2021/04/23 00:08:13;;;;;;;10.50;9.40;;;;;21.40;101596.00;;;;2078747;28;20219;-66
2021/04/23 00:09:21;;;;;;;10.05;9.05;;;;;21.40;101597.00;;;;2079025;28;20272;-65
2021/04/23 00:10:23;;;;;;;11.70;10.48;;;;;21.40;101619.00;;;;2078739;28;20227;-65
2021/04/23 00:11:36;;;;;;;10.80;9.70;;;;;21.40;101604.00;;;;2078987;28;20206;-66
2021/04/23 00:12:36;;;;;;;12.25;10.35;;;;;21.40;101601.00;;;;2076887;28;20253;-66
2021/04/23 00:13:38;;;;;;;10.67;9.40;;;;;21.40;101613.00;;;;2079640;28;20223;-66
2021/04/23 00:14:49;;;;;;;10.43;9.32;;;;;21.40;101603.00;;;;2078092;28;20219;-65
2021/04/23 00:15:49;;;;;;;10.98;9.32;;;;;21.40;101606.00;;;;2078001;28;20615;-65
2021/04/23 00:16:50;;;;;;;10.57;9.47;;;;;21.40;101599.00;;;;2078874;28;20223;-65
2021/04/23 00:17:50;;;;;;;10.40;9.30;;;;;21.40;101609.00;;;;2079022;28;20698;-65
2021/04/23 00:18:51;;;;;;;10.80;9.70;;;;;21.40;101597.00;;;;2078770;28;20218;-66
2021/04/23 00:19:51;;;;;;;8.77;7.87;;;;;21.40;101605.00;;;;2078720;28;20309;-66
2021/04/23 00:20:52;;;;;;;9.33;8.43;;;;;21.40;101619.00;;;;2078867;28;20253;-66
2021/04/23 00:21:52;;;;;;;10.47;8.87;;;;;21.40;101604.00;;;;2079463;28;20232;-66
2021/04/23 00:22:56;;;;;;;9.77;8.77;;;;;21.40;101609.00;;;;2079354;28;20492;-65
2021/04/23 00:23:58;;;;;;;11.00;8.63;;;;;21.40;101606.00;;;;2079593;28;20699;-66
2021/04/23 00:24:58;;;;;;;9.20;8.25;;;;;21.40;101607.00;;;;2079475;28;20223;-67
2021/04/23 00:25:59;;;;;;;8.80;7.90;;;;;21.40;101608.00;;;;2079303;28;20263;-66
2021/04/23 00:27:00;;;;;;;10.00;8.65;;;;;21.40;101618.00;;;;2079236;28;20223;-66
2021/04/23 00:28:03;;;;;;;9.30;8.40;;;;;21.40;101601.00;;;;2079453;28;20584;-66
2021/04/23 00:29:03;;;;;;;9.30;7.63;;;;;21.40;101604.00;;;;2078744;28;20462;-66
2021/04/23 00:30:05;;;;;;;9.23;8.30;;;;;21.40;101606.00;;;;2078477;28;20697;-66
2021/04/23 00:31:06;;;;;;;9.23;8.07;;;;;21.40;101605.00;;;;2079157;28;20218;-66
2021/04/23 00:33:25;;;;;;;9.30;7.88;;;;;21.40;101602.00;;;;2078508;28;20826;-67
2021/04/23 00:34:25;;;;;;;9.90;8.20;;;;;21.40;101604.00;;;;2078972;28;20235;-66
2021/04/23 00:35:28;;;;;;;8.90;8.00;;;;;21.40;101607.00;;;;2070475;28;20220;-65
2021/04/23 00:36:28;;;;;;;9.77;7.97;;;;;21.40;101607.00;;;;2070890;28;20211;-65
2021/04/23 00:37:28;;;;;;;8.50;7.70;;;;;21.40;101608.00;;;;2079530;28;20235;-65
2021/04/23 00:38:29;;;;;;;8.90;7.90;;;;;21.30;101608.00;;;;2079449;28;20205;-66
2021/04/23 00:39:29;;;;;;;7.97;6.97;;;;;21.40;101605.00;;;;2077826;28;20347;-65
2021/04/23 00:40:34;;;;;;;8.67;7.40;;;;;21.40;101607.00;;;;2078747;28;20215;-65
2021/04/23 00:41:35;;;;;;;8.43;7.47;;;;;21.30;101614.00;;;;2079417;28;20223;-66
2021/04/23 00:42:35;;;;;;;9.23;7.40;;;;;21.30;101613.00;;;;2079275;28;20215;-66
2021/04/23 00:43:37;;;;;;;8.20;7.50;;;;;21.40;101619.00;;;;2078987;28;20212;-65
2021/04/23 00:44:38;;;;;;;8.38;6.72;;;;;21.40;101616.00;;;;2079255;28;20202;-66
2021/04/23 00:45:38;;;;;;;8.00;6.77;;;;;21.30;101614.00;;;;2079281;28;20211;-66
2021/04/23 00:46:38;;;;;;;10.07;7.67;;;;;21.30;101623.00;;;;2079284;28;20264;-66
2021/04/23 00:47:39;;;;;;;9.10;7.40;;;;;21.30;101621.00;;;;2079370;28;20233;-66
2021/04/23 00:48:44;;;;;;;7.90;7.07;;;;;21.30;101622.00;;;;2079343;28;20207;-66
2021/04/23 00:49:45;;;;;;;8.23;6.93;;;;;21.30;101623.00;;;;2078931;28;20268;-65
2021/04/23 00:51:15;;;;;;;8.00;6.57;;;;;21.30;101618.00;;;;2079206;28;20210;-65
2021/04/23 00:52:16;;;;;;;7.28;6.50;;;;;21.30;101616.00;;;;2064247;28;20673;-66
2021/04/23 00:53:27;;;;;;;7.67;6.50;;;;;21.30;101622.00;;;;2078427;28;20219;-65
2021/04/23 00:54:28;;;;;;;7.32;6.45;;;;;21.30;101560.00;;;;2079326;28;20214;-66
2021/04/23 00:55:28;;;;;;;8.13;7.30;;;;;21.30;101608.00;;;;2079229;28;20218;-66
2021/04/23 00:56:31;;;;;;;8.80;6.30;;;;;21.20;101612.00;;;;2078210;28;20202;-66
2021/04/23 00:57:32;;;;;;;7.65;6.45;;;;;21.20;101618.00;;;;2078620;28;20234;-66
2021/04/23 00:58:32;;;;;;;6.80;6.10;;;;;21.30;101608.00;;;;2079388;28;20219;-65
2021/04/23 00:59:32;;;;;;;7.13;5.53;;;;;21.30;101603.00;;;;2078917;28;20222;-66
2021/04/23 01:00:33;;;;;;;7.40;6.60;;;;;21.30;101613.00;;;;2079200;28;20210;-66
2021/04/23 01:01:45;;;;;;;8.27;5.83;;;;;21.30;101618.00;;;;2079200;28;20276;-66
2021/04/23 01:02:46;;;;;;;7.15;6.28;;;;;21.30;101604.00;;;;2075596;28;20234;-65
2021/04/23 01:03:46;;;;;;;6.83;6.10;;;;;21.30;101601.00;;;;2079219;28;20210;-65
2021/04/23 01:04:48;;;;;;;6.77;6.07;;;;;21.30;101613.00;;;;2075211;28;20629;-65
2021/04/23 01:05:49;;;;;;;6.97;5.88;;;;;21.30;101604.00;;;;2078571;28;20212;-66
2021/04/23 01:06:49;;;;;;;7.77;6.43;;;;;21.30;101604.00;;;;2078176;28;20225;-65
2021/04/23 01:07:50;;;;;;;6.23;5.67;;;;;21.30;101603.00;;;;2078514;28;21046;-65
2021/04/23 01:08:51;;;;;;;7.03;6.33;;;;;21.30;101606.00;;;;2079373;28;20210;-66
2021/04/23 01:09:51;;;;;;;6.97;6.27;;;;;21.30;101599.00;;;;2078245;28;20545;-65
2021/04/23 01:10:59;;;;;;;6.53;5.93;;;;;21.30;101603.00;;;;2070394;28;20324;-65
2021/04/23 01:12:00;;;;;;;7.03;6.43;;;;;21.30;101606.00;;;;2074862;28;20221;-66
2021/04/23 01:13:01;;;;;;;6.57;5.15;;;;;21.30;101605.00;;;;2079010;28;20538;-66
2021/04/23 01:14:02;;;;;;;6.13;5.53;;;;;21.20;101596.00;;;;2078234;28;20214;-66
2021/04/23 01:15:03;;;;;;;6.80;5.70;;;;;21.30;101600.00;;;;2078365;28;20202;-66
2021/04/23 01:16:06;;;;;;;5.70;5.15;;;;;21.30;101609.00;;;;2078822;28;21055;-66
2021/04/23 01:17:06;;;;;;;6.78;6.07;;;;;21.20;101602.00;;;;2078451;28;20211;-66
2021/04/23 01:18:06;;;;;;;6.07;5.47;;;;;21.20;101615.00;;;;2077144;28;20229;-65
2021/04/23 01:19:10;;;;;;;6.57;5.90;;;;;21.20;101608.00;;;;2079158;28;20213;-66
2021/04/23 01:20:11;;;;;;;7.80;6.00;;;;;21.30;101612.00;;;;2078375;28;20577;-66
2021/04/23 01:21:12;;;;;;;6.53;5.60;;;;;21.20;101607.00;;;;2078124;28;20334;-66
2021/04/23 01:22:12;;;;;;;5.80;5.20;;;;;21.20;101606.00;;;;2076024;28;20446;-66
2021/04/23 01:23:12;;;;;;;6.60;5.77;;;;;21.20;101612.00;;;;2078953;28;20476;-66
2021/04/23 01:24:13;;;;;;;6.07;5.47;;;;;21.20;101620.00;;;;2079160;28;20222;-66
2021/04/23 01:25:13;;;;;;;6.53;5.40;;;;;21.20;101614.00;;;;2079106;28;20301;-66
2021/04/23 01:26:15;;;;;;;6.17;5.50;;;;;21.20;101614.00;;;;2078358;28;20341;-66
2021/04/23 01:27:15;;;;;;;4.88;4.47;;;;;21.20;101616.00;;;;2078427;28;20244;-66
2021/04/23 01:28:15;;;;;;;6.07;5.00;;;;;21.20;101615.00;;;;2078421;28;20752;-66
2021/04/23 01:29:16;;;;;;;7.07;5.53;;;;;21.20;101618.00;;;;2072345;28;20300;-66
2021/04/23 01:30:18;;;;;;;5.57;5.03;;;;;21.20;101620.00;;;;2070166;28;20242;-66
2021/04/23 01:31:19;;;;;;;5.65;4.90;;;;;21.20;101614.00;;;;2078684;28;20241;-66
2021/04/23 01:32:20;;;;;;;5.47;4.68;;;;;21.20;101617.00;;;;2079028;28;20311;-66
2021/04/23 01:33:20;;;;;;;6.30;5.60;;;;;21.20;101609.00;;;;2079192;28;20585;-66
2021/04/23 01:34:24;;;;;;;6.23;5.50;;;;;21.20;101619.00;;;;2079067;28;20220;-66
2021/04/23 01:35:26;;;;;;;5.65;5.03;;;;;21.20;101620.00;;;;2077921;28;20950;-66
2021/04/23 01:36:26;;;;;;;5.72;5.22;;;;;21.20;101618.00;;;;2077506;28;20229;-66
2021/04/23 01:37:28;;;;;;;6.30;5.70;;;;;21.20;101605.00;;;;2078404;28;20677;-66
2021/04/23 01:38:28;;;;;;;5.68;5.00;;;;;21.20;101609.00;;;;2078277;28;20220;-66
2021/04/23 01:39:30;;;;;;;5.90;5.00;;;;;21.20;101607.00;;;;2078317;28;20234;-66
2021/04/23 01:40:30;;;;;;;5.55;5.05;;;;;21.20;101622.00;;;;2078396;28;20225;-66
2021/04/23 01:41:30;;;;;;;5.40;4.90;;;;;21.20;101616.00;;;;2079051;28;20214;-66
2021/04/23 01:42:31;;;;;;;7.07;4.53;;;;;21.10;101609.00;;;;2078918;28;20317;-66
2021/04/23 01:43:31;;;;;;;5.97;5.37;;;;;21.10;101618.00;;;;2079775;28;20230;-66
2021/04/23 01:44:32;;;;;;;5.30;4.80;;;;;21.20;101615.00;;;;2080696;28;20292;-66
2021/04/23 01:45:32;;;;;;;5.97;5.37;;;;;21.10;101614.00;;;;2080329;28;20250;-66
2021/04/23 01:46:33;;;;;;;5.83;5.13;;;;;21.10;101617.00;;;;2080450;28;20214;-66
2021/04/23 01:47:34;;;;;;;6.47;5.50;;;;;21.10;101626.00;;;;2080575;28;20218;-65
2021/04/23 01:48:34;;;;;;;6.37;5.03;;;;;21.10;101629.00;;;;2080723;28;20251;-66
2021/04/23 01:49:35;;;;;;;6.00;5.40;;;;;21.10;101620.00;;;;2080650;28;20219;-66
2021/04/23 01:50:35;;;;;;;5.03;4.53;;;;;21.10;101616.00;;;;2080110;28;20242;-66
2021/04/23 01:51:43;;;;;;;5.30;4.73;;;;;21.10;101626.00;;;;2079967;28;20756;-66
2021/04/23 01:52:44;;;;;;;5.43;4.45;;;;;21.10;101623.00;;;;2080009;28;20872;-66
2021/04/23 01:53:44;;;;;;;6.57;5.07;;;;;21.10;101620.00;;;;2080184;28;20232;-65
2021/04/23 01:54:46;;;;;;;5.80;5.20;;;;;21.10;101623.00;;;;2080683;28;20434;-66
2021/04/23 01:55:47;;;;;;;5.78;4.90;;;;;21.10;101619.00;;;;2080759;28;20271;-66
2021/04/23 01:56:47;;;;;;;5.20;4.50;;;;;21.10;101628.00;;;;2079726;28;20321;-66
2021/04/23 01:57:48;;;;;;;7.17;5.33;;;;;21.10;101624.00;;;;2080089;28;20458;-66
2021/04/23 01:58:48;;;;;;;5.43;4.80;;;;;21.10;101625.00;;;;2079960;28;20253;-66
2021/04/23 01:59:49;;;;;;;4.93;4.40;;;;;21.10;101625.00;;;;2079708;28;20224;-66
2021/04/23 02:00:50;;;;;;;5.70;5.20;;;;;21.10;101631.00;;;;2080452;28;20256;-66
2021/04/23 02:01:50;;;;;;;5.03;4.63;;;;;21.10;101624.00;;;;2080577;28;20227;-66
2021/04/23 02:02:51;;;;;;;4.33;3.93;;;;;21.10;101623.00;;;;2077371;28;20775;-66
2021/04/23 02:03:52;;;;;;;5.15;4.25;;;;;21.10;101630.00;;;;2080583;28;20226;-66
2021/04/23 02:04:52;;;;;;;5.30;4.80;;;;;21.10;101623.00;;;;2080368;28;20305;-66
2021/04/23 02:05:53;;;;;;;7.00;4.77;;;;;21.10;101609.00;;;;2079605;28;20305;-66
2021/04/23 02:06:54;;;;;;;4.25;3.72;;;;;21.10;101621.00;;;;2079659;28;20213;-66
2021/04/23 02:07:54;;;;;;;5.17;4.67;;;;;21.10;101617.00;;;;2079697;28;20333;-66
2021/04/23 02:08:55;;;;;;;5.17;4.67;;;;;21.10;101626.00;;;;2079732;28;20280;-67
2021/04/23 02:09:55;;;;;;;5.63;5.13;;;;;21.10;101627.00;;;;2080030;28;20230;-66
2021/04/23 02:11:04;;;;;;;5.50;4.20;;;;;21.10;101626.00;;;;2080633;28;20215;-66
2021/04/23 02:12:05;;;;;;;5.05;4.55;;;;;21.10;101622.00;;;;2080538;28;21117;-66
2021/04/23 02:13:06;;;;;;;4.93;4.28;;;;;21.10;101627.00;;;;2080555;28;20222;-66
2021/04/23 02:14:06;;;;;;;5.10;4.23;;;;;21.10;101623.00;;;;2079961;28;20353;-66
2021/04/23 02:15:09;;;;;;;6.13;4.40;;;;;21.10;101626.00;;;;2070851;28;20226;-66
2021/04/23 02:16:10;;;;;;;4.40;4.00;;;;;21.10;101622.00;;;;2076964;28;20217;-66
2021/04/23 02:17:10;;;;;;;5.07;4.37;;;;;21.00;101622.00;;;;2080549;28;20208;-65
2021/04/23 02:18:11;;;;;;;6.07;4.10;;;;;21.10;101629.00;;;;2080563;28;20743;-65
2021/04/23 02:19:12;;;;;;;4.23;3.83;;;;;21.10;101627.00;;;;2080131;28;20878;-66
2021/04/23 02:20:15;;;;;;;4.07;3.70;;;;;21.10;101624.00;;;;2080269;28;20306;-66
2021/04/23 02:21:16;;;;;;;4.50;4.10;;;;;21.10;101624.00;;;;2080403;28;20214;-66
2021/04/23 02:22:16;;;;;;;6.63;4.80;;;;;21.10;101632.00;;;;2080539;28;20234;-66
2021/04/23 02:23:18;;;;;;;6.00;4.63;;;;;21.00;101630.00;;;;2079856;28;20314;-66
2021/04/23 02:24:19;;;;;;;4.90;4.10;;;;;21.10;101628.00;;;;2080354;28;20259;-66
2021/04/23 02:25:20;;;;;;;4.73;4.13;;;;;21.10;101631.00;;;;2080294;28;20229;-66
2021/04/23 02:26:21;;;;;;;4.83;4.33;;;;;21.00;101635.00;;;;2080282;28;20863;-66
2021/04/23 02:27:21;;;;;;;4.55;4.15;;;;;21.00;101625.00;;;;2080530;28;21009;-66
2021/04/23 02:28:22;;;;;;;4.37;3.80;;;;;21.10;101638.00;;;;2078530;28;20248;-66
2021/04/23 02:29:22;;;;;;;4.90;4.27;;;;;21.00;101637.00;;;;2078714;28;20214;-66
2021/04/23 02:30:26;;;;;;;5.47;3.93;;;;;21.00;101635.00;;;;2080344;28;20291;-66
2021/04/23 02:31:27;;;;;;;4.25;3.83;;;;;21.10;101628.00;;;;2080124;28;20734;-66
2021/04/23 02:32:28;;;;;;;4.32;3.92;;;;;21.10;101637.00;;;;2080261;28;20217;-66
2021/04/23 02:33:28;;;;;;;5.10;4.10;;;;;21.00;101630.00;;;;2079393;28;20306;-67
2021/04/23 02:34:28;;;;;;;4.50;4.03;;;;;21.00;101632.00;;;;2080127;28;20214;-66
2021/04/23 02:35:29;;;;;;;4.10;3.60;;;;;21.00;101631.00;;;;2077248;28;20796;-66
2021/04/23 02:36:29;;;;;;;5.40;3.90;;;;;21.00;101633.00;;;;2079976;28;20621;-66
2021/04/23 02:37:29;;;;;;;4.30;3.90;;;;;21.00;101628.00;;;;2079261;28;20892;-66
2021/04/23 02:38:30;;;;;;;5.40;4.60;;;;;21.00;101635.00;;;;2077516;28;20701;-66
2021/04/23 02:39:30;;;;;;;6.33;4.37;;;;;21.00;101636.00;;;;2077371;28;20915;-66
2021/04/23 02:40:31;;;;;;;4.20;3.80;;;;;21.00;101635.00;;;;2080378;28;20210;-66
2021/04/23 02:41:31;;;;;;;3.60;3.30;;;;;21.00;101644.00;;;;2080435;28;20225;-66
2021/04/23 02:42:32;;;;;;;4.97;4.00;;;;;21.00;101633.00;;;;2080216;28;20215;-66
2021/04/23 02:43:37;;;;;;;5.07;4.57;;;;;21.00;101638.00;;;;2080052;28;20249;-65
2021/04/23 02:44:38;;;;;;;4.10;3.70;;;;;21.00;101643.00;;;;2076406;28;20214;-66
2021/04/23 02:45:39;;;;;;;4.53;4.13;;;;;21.00;101639.00;;;;2071097;28;21045;-66
2021/04/23 02:46:39;;;;;;;4.03;3.63;;;;;21.00;101641.00;;;;2071342;28;20211;-66
2021/04/23 02:47:40;;;;;;;4.50;3.50;;;;;21.00;101640.00;;;;2080269;28;20220;-66
2021/04/23 02:48:41;;;;;;;3.67;3.37;;;;;21.00;101643.00;;;;2078024;28;20222;-66
2021/04/23 02:49:42;;;;;;;6.55;4.05;;;;;21.00;101646.00;;;;2078864;28;20230;-66
2021/04/23 02:50:44;;;;;;;6.10;4.07;;;;;21.00;101642.00;;;;2079675;28;20705;-66
2021/04/23 02:51:46;;;;;;;4.40;3.60;;;;;21.00;101646.00;;;;2079307;28;20227;-66
2021/04/23 02:52:46;;;;;;;4.55;4.13;;;;;21.00;101645.00;;;;2079181;28;20217;-66
2021/04/23 02:53:47;;;;;;;5.33;4.13;;;;;21.00;101643.00;;;;2079571;28;20213;-66
2021/04/23 02:54:47;;;;;;;3.90;3.40;;;;;21.00;101649.00;;;;2079267;28;20296;-66
2021/04/23 02:55:47;;;;;;;5.20;3.70;;;;;20.90;101654.00;;;;2079869;28;20213;-66
2021/04/23 02:56:48;;;;;;;3.93;3.60;;;;;20.90;101652.00;;;;2079148;28;20273;-66
2021/04/23 02:58:05;;;;;;;4.37;3.97;;;;;21.00;101650.00;;;;2073250;28;20225;-66
2021/04/23 02:59:06;;;;;;;4.45;3.85;;;;;20.90;101657.00;;;;2078409;28;20217;-66
2021/04/23 03:00:11;;;;;;;4.23;3.43;;;;;20.90;101657.00;;;;2079339;28;20218;-66
2021/04/23 03:01:16;;;;;;;4.38;3.97;;;;;20.90;101650.00;;;;2079675;28;20214;-66
2021/04/23 03:02:17;;;;;;;4.50;3.58;;;;;20.90;101654.00;;;;2079409;28;20576;-66
2021/04/23 03:03:17;;;;;;;4.70;3.70;;;;;20.90;101651.00;;;;2071112;28;20232;-66
2021/04/23 03:04:18;;;;;;;4.80;3.50;;;;;21.00;101663.00;;;;2057824;28;20212;-66
2021/04/23 03:05:19;;;;;;;4.33;3.20;;;;;20.90;101656.00;;;;2067070;28;20220;-66
2021/04/23 03:06:20;;;;;;;4.10;3.40;;;;;20.90;101654.00;;;;2078985;28;20306;-66
2021/04/23 03:07:20;;;;;;;4.43;3.70;;;;;20.90;101662.00;;;;2080074;28;20577;-66
2021/04/23 03:08:21;;;;;;;4.70;4.30;;;;;21.00;101656.00;;;;2079157;28;20225;-66
2021/04/23 03:09:21;;;;;;;6.30;4.00;;;;;20.90;101662.00;;;;2080047;28;20205;-66
2021/04/23 03:10:24;;;;;;;4.37;3.57;;;;;21.00;101658.00;;;;2077617;28;20226;-66
2021/04/23 03:11:24;;;;;;;4.43;3.50;;;;;20.90;101665.00;;;;2079523;28;20577;-66
2021/04/23 03:12:25;;;;;;;4.20;3.80;;;;;20.90;101662.00;;;;2080108;28;20219;-66
2021/04/23 03:13:26;;;;;;;4.07;3.63;;;;;20.90;101664.00;;;;2079867;28;20310;-66
2021/04/23 03:14:26;;;;;;;4.25;3.83;;;;;20.90;101662.00;;;;2080110;28;20648;-66
2021/04/23 03:15:28;;;;;;;5.73;3.80;;;;;20.90;101670.00;;;;2080149;28;20221;-66
2021/04/23 03:16:28;;;;;;;4.07;3.53;;;;;20.90;101666.00;;;;2079589;28;20580;-66
2021/04/23 03:17:29;;;;;;;5.33;3.73;;;;;20.90;101670.00;;;;2079852;28;20230;-66
2021/04/23 03:18:29;;;;;;;4.20;3.70;;;;;20.90;101669.00;;;;2080075;28;20222;-66
2021/04/23 03:19:30;;;;;;;5.30;3.90;;;;;20.90;101675.00;;;;2076431;28;20235;-66
2021/04/23 03:20:30;;;;;;;5.30;3.60;;;;;20.90;101673.00;;;;2079888;28;21156;-66
2021/04/23 03:21:31;;;;;;;5.03;4.20;;;;;20.90;101681.00;;;;2079830;28;20214;-66
2021/04/23 03:22:31;;;;;;;3.60;3.30;;;;;20.90;101679.00;;;;2079993;28;20222;-66
2021/04/23 03:23:31;;;;;;;4.23;3.80;;;;;20.90;101682.00;;;;2079916;28;20250;-66
2021/04/23 03:24:32;;;;;;;4.30;3.17;;;;;20.90;101677.00;;;;2078320;28;20234;-66
2021/04/23 03:25:32;;;;;;;4.70;3.80;;;;;20.90;101681.00;;;;2079660;28;20218;-66
2021/04/23 03:26:33;;;;;;;3.73;3.33;;;;;20.90;101673.00;;;;2079854;28;20253;-66
2021/04/23 03:27:33;;;;;;;3.83;3.33;;;;;20.90;101681.00;;;;2080009;28;20228;-66
2021/04/23 03:28:34;;;;;;;4.17;2.90;;;;;20.90;101674.00;;;;2079799;28;20235;-66
2021/04/23 03:29:34;;;;;;;4.30;3.27;;;;;20.90;101671.00;;;;2079865;28;20736;-66
2021/04/23 03:30:40;;;;;;;4.83;4.23;;;;;20.80;101676.00;;;;2076278;28;20300;-66
2021/04/23 03:31:41;;;;;;;3.58;3.28;;;;;20.90;101677.00;;;;2079962;28;20218;-66
2021/04/23 03:32:42;;;;;;;3.80;3.50;;;;;20.90;101676.00;;;;2079568;28;20700;-66
2021/04/23 03:33:42;;;;;;;5.40;3.87;;;;;20.90;101681.00;;;;2079381;28;20222;-64
2021/04/23 03:34:43;;;;;;;3.80;3.50;;;;;20.90;101674.00;;;;2078412;28;20213;-64
2021/04/23 03:35:47;;;;;;;4.80;4.07;;;;;20.80;101684.00;;;;2079157;28;20246;-64
2021/04/23 03:36:47;;;;;;;4.68;3.50;;;;;20.90;101680.00;;;;2070643;28;20203;-63
2021/04/23 03:37:48;;;;;;;5.53;3.77;;;;;20.90;101694.00;;;;2070907;28;20219;-63
2021/04/23 03:38:48;;;;;;;4.53;3.60;;;;;20.80;101683.00;;;;2079803;28;20245;-63
2021/04/23 03:39:49;;;;;;;4.80;3.70;;;;;20.90;101688.00;;;;2079752;28;20685;-63
2021/04/23 03:40:49;;;;;;;3.93;3.53;;;;;20.80;101683.00;;;;2079929;28;20222;-63
2021/04/23 03:41:50;;;;;;;3.67;3.37;;;;;20.80;101683.00;;;;2079677;28;20210;-63
2021/04/23 03:42:50;;;;;;;4.87;3.30;;;;;20.80;101691.00;;;;2079585;28;20223;-63
2021/04/23 03:43:51;;;;;;;5.90;4.10;;;;;20.80;101689.00;;;;2079832;28;20218;-63
2021/04/23 03:44:51;;;;;;;3.83;3.40;;;;;20.80;101682.00;;;;2074914;28;20261;-63
2021/04/23 03:45:53;;;;;;;3.93;3.50;;;;;20.80;101686.00;;;;2079772;28;20202;-63
2021/04/23 03:46:53;;;;;;;4.22;3.83;;;;;20.80;101685.00;;;;2079578;28;20207;-63
2021/04/23 03:47:54;;;;;;;3.47;3.17;;;;;20.80;101682.00;;;;2079690;28;20640;-63
2021/04/23 03:48:55;;;;;;;3.93;3.20;;;;;20.80;101683.00;;;;2079401;28;20485;-63
2021/04/23 03:49:55;;;;;;;4.07;3.20;;;;;20.80;101686.00;;;;2079857;28;20246;-63
2021/04/23 03:50:55;;;;;;;4.73;3.90;;;;;20.80;101679.00;;;;2079835;28;20206;-63
2021/04/23 03:51:56;;;;;;;4.07;3.70;;;;;20.80;101684.00;;;;2079723;28;20206;-63
2021/04/23 03:52:57;;;;;;;4.00;3.60;;;;;20.80;101678.00;;;;2079734;28;20199;-63
2021/04/23 03:53:57;;;;;;;3.83;3.50;;;;;20.80;101686.00;;;;2079743;28;20202;-63
2021/04/23 03:54:59;;;;;;;3.87;3.53;;;;;20.80;101687.00;;;;2079820;28;20453;-63
2021/04/23 03:56:00;;;;;;;4.68;3.90;;;;;20.80;101684.00;;;;2079819;28;20267;-63
2021/04/23 03:57:00;;;;;;;3.63;3.33;;;;;20.80;101682.00;;;;2079588;28;20217;-63
2021/04/23 03:58:01;;;;;;;3.90;3.50;;;;;20.80;101680.00;;;;2078892;28;20295;-63
2021/04/23 03:59:01;;;;;;;3.67;3.37;;;;;20.80;101691.00;;;;2070411;28;20257;-63
2021/04/23 04:00:09;;;;;;;4.33;3.20;;;;;20.80;101693.00;;;;2078950;28;20214;-63
2021/04/23 04:01:17;;;;;;;3.88;3.45;;;;;20.80;101698.00;;;;2078967;28;20214;-63
2021/04/23 04:02:18;;;;;;;4.93;3.70;;;;;20.70;101690.00;;;;2078739;28;20206;-64
2021/04/23 04:03:18;;;;;;;4.27;3.40;;;;;20.80;101692.00;;;;2079609;28;20438;-65
2021/04/23 04:04:18;;;;;;;3.57;3.27;;;;;20.80;101686.00;;;;2079705;28;20241;-65
2021/04/23 04:05:19;;;;;;;5.47;3.30;;;;;20.70;101696.00;;;;2078964;28;20210;-66
2021/04/23 04:06:19;;;;;;;3.53;2.90;;;;;20.80;101694.00;;;;2078253;28;20214;-65
2021/04/23 04:07:19;;;;;;;3.40;3.10;;;;;20.80;101689.00;;;;2078230;28;20215;-65
2021/04/23 04:08:20;;;;;;;3.83;3.40;;;;;20.80;101698.00;;;;2079387;28;20292;-66
2021/04/23 04:09:20;;;;;;;4.00;3.57;;;;;20.70;101694.00;;;;2079430;28;20213;-65
2021/04/23 04:10:21;;;;;;;6.53;3.53;;;;;20.80;101692.00;;;;2078682;28;20697;-66
2021/04/23 04:11:21;;;;;;;4.10;3.70;;;;;20.70;101701.00;;;;2079080;28;20237;-66
2021/04/23 04:12:21;;;;;;;3.43;3.13;;;;;20.70;101697.00;;;;2079514;28;20211;-66
2021/04/23 04:13:22;;;;;;;4.20;3.23;;;;;20.70;101692.00;;;;2079501;28;20225;-66
2021/04/23 04:14:22;;;;;;;3.90;3.60;;;;;20.70;101702.00;;;;2079462;28;20217;-65
2021/04/23 04:15:24;;;;;;;4.00;3.13;;;;;20.70;101696.00;;;;2079443;28;20210;-66
2021/04/23 04:16:24;;;;;;;3.53;3.22;;;;;20.70;101699.00;;;;2074668;28;20307;-66
2021/04/23 04:17:25;;;;;;;4.10;3.10;;;;;20.70;101702.00;;;;2070538;28;20869;-66
2021/04/23 04:18:25;;;;;;;4.30;3.90;;;;;20.70;101700.00;;;;2071404;28;20202;-66
2021/04/23 04:19:26;;;;;;;3.13;2.83;;;;;20.70;101691.00;;;;2078853;28;20205;-66
2021/04/23 04:20:29;;;;;;;4.20;3.07;;;;;20.70;101706.00;;;;2079292;28;20221;-66
2021/04/23 04:21:30;;;;;;;3.97;3.10;;;;;20.70;101704.00;;;;2078739;28;20206;-66
2021/04/23 04:22:30;;;;;;;3.73;3.33;;;;;20.70;101706.00;;;;2079018;28;20220;-66
2021/04/23 04:23:31;;;;;;;4.00;3.40;;;;;20.70;101707.00;;;;2079408;28;20704;-66
2021/04/23 04:24:31;;;;;;;3.50;3.20;;;;;20.70;101707.00;;;;2079324;28;20218;-66
2021/04/23 04:25:37;;;;;;;4.33;3.20;;;;;20.70;101711.00;;;;2079414;28;20222;-66
2021/04/23 04:26:37;;;;;;;2.75;2.50;;;;;20.70;101712.00;;;;2074525;28;20722;-66
2021/04/23 04:27:37;;;;;;;4.10;3.30;;;;;20.70;101714.00;;;;2069821;28;20219;-66
2021/04/23 04:28:38;;;;;;;3.90;3.50;;;;;20.70;101711.00;;;;2074060;28;20232;-66
2021/04/23 04:29:38;;;;;;;3.90;3.17;;;;;20.70;101717.00;;;;2078500;28;20218;-66
2021/04/23 04:30:39;;;;;;;3.63;3.33;;;;;20.70;101717.00;;;;2078928;28;20218;-66
2021/04/23 04:31:39;;;;;;;4.53;3.00;;;;;20.80;101710.00;;;;2077980;28;20264;-66
2021/04/23 04:32:39;;;;;;;4.70;3.20;;;;;20.70;101711.00;;;;2078897;28;20228;-66
2021/04/23 04:33:40;;;;;;;3.43;3.13;;;;;20.70;101717.00;;;;2076358;28;20221;-66
2021/04/23 04:34:40;;;;;;;4.33;3.07;;;;;20.70;101720.00;;;;2077978;28;20666;-66
2021/04/23 04:35:41;;;;;;;3.30;3.00;;;;;20.70;101724.00;;;;2078871;28;20268;-66
2021/04/23 04:36:41;;;;;;;4.40;3.47;;;;;20.70;101724.00;;;;2079167;28;20692;-66
2021/04/23 04:37:42;;;;;;;4.40;3.13;;;;;20.70;101716.00;;;;2079415;28;20320;-66
2021/04/23 04:38:42;;;;;;;3.40;3.10;;;;;20.70;101706.00;;;;2079290;28;20230;-67
2021/04/23 04:39:42;;;;;;;4.10;3.10;;;;;20.70;101722.00;;;;2079231;28;20222;-66
2021/04/23 04:40:44;;;;;;;3.80;3.43;;;;;20.70;101718.00;;;;2079366;28;20223;-66
2021/04/23 04:41:44;;;;;;;3.33;3.03;;;;;20.70;101725.00;;;;2078696;28;20221;-66
2021/04/23 04:42:44;;;;;;;3.13;2.83;;;;;20.70;101723.00;;;;2078607;28;22226;-66
2021/04/23 04:43:45;;;;;;;4.50;3.10;;;;;20.60;101731.00;;;;2078968;28;20217;-66
2021/04/23 04:44:45;;;;;;;4.70;3.57;;;;;20.60;101727.00;;;;2079488;28;20731;-66
2021/04/23 04:45:46;;;;;;;3.63;2.97;;;;;20.60;101736.00;;;;2078715;28;20213;-66
2021/04/23 04:46:46;;;;;;;5.10;3.40;;;;;20.70;101730.00;;;;2078603;28;20226;-65
2021/04/23 04:47:47;;;;;;;4.10;3.17;;;;;20.70;101723.00;;;;2078619;28;20209;-65
2021/04/23 04:48:47;;;;;;;4.20;3.40;;;;;20.80;101722.00;;;;2079240;28;20213;-66
2021/04/23 04:49:47;;;;;;;4.13;2.77;;;;;20.80;101726.00;;;;2079251;28;20714;-65
2021/04/23 04:50:53;;;;;;;4.33;2.97;;;;;20.80;101722.00;;;;2079259;28;20664;-65
2021/04/23 04:51:53;;;;;;;4.10;3.00;;;;;20.80;101725.00;;;;2079049;28;20220;-65
2021/04/23 04:52:55;;;;;;;5.07;3.30;;;;;20.80;101725.00;;;;2079433;28;20265;-64
2021/04/23 04:53:55;;;;;;;6.20;3.08;;;;;20.80;101731.00;;;;2078574;28;20616;-65
2021/04/23 04:54:56;;;;;;;4.63;3.53;;;;;20.80;101730.00;;;;2078443;28;20209;-65
2021/04/23 04:55:57;;;;;;;3.60;3.00;;;;;20.80;101736.00;;;;2079398;28;20221;-65
2021/04/23 04:56:57;;;;;;;4.05;3.28;;;;;20.80;101730.00;;;;2075195;28;20220;-64
2021/04/23 04:57:58;;;;;;;4.30;3.00;;;;;20.80;101742.00;;;;2078732;28;20678;-65
2021/04/23 04:58:58;;;;;;;3.47;3.17;;;;;20.80;101736.00;;;;2070443;28;20809;-65
2021/04/23 04:59:59;;;;;;;4.67;2.93;;;;;20.80;101739.00;;;;2078528;28;20355;-64
2021/04/23 05:00:59;;;;;;;6.90;3.43;;;;;20.80;101734.00;;;;2079169;28;20209;-65
2021/04/23 05:02:00;;;;;;;3.60;3.03;;;;;20.80;101744.00;;;;2078697;28;20221;-65
2021/04/23 05:03:00;;;;;;;3.27;2.90;;;;;20.70;101737.00;;;;2077802;28;20249;-65
2021/04/23 05:04:00;;;;;;;5.50;3.50;;;;;20.60;101735.00;;;;2078700;28;20221;-65
2021/04/23 05:05:02;;;;;;;4.67;3.37;;;;;20.60;101732.00;;;;2079156;28;20210;-65